sensor_id;sensor_type;location;lat;lon;timestamp;P1;durP1;ratioP1;P2;durP2;ratioP2
6537;SDS011;3302;52.508;13.454;2022-12-18T00:01:02;37.23;;;17.27;;
6537;SDS011;3302;52.508;13.454;2022-12-18T00:03:34;28.47;;;15.57;;
6537;SDS011;3302;52.508;13.454;2022-12-18T00:06:01;26.60;;;14.33;;
6537;SDS011;3302;52.508;13.454;2022-12-18T00:08:27;26.47;;;13.60;;
6537;SDS011;3302;52.508;13.454;2022-12-18T00:10:53;32.47;;;16.30;;
6537;SDS011;3302;52.508;13.454;2022-12-18T00:13:19;33.00;;;15.97;;
6537;SDS011;3302;52.508;13.454;2022-12-18T00:15:45;31.93;;;15.20;;
6537;SDS011;3302;52.508;13.454;2022-12-18T00:18:11;28.63;;;15.17;;
6537;SDS011;3302;52.508;13.454;2022-12-18T00:20:38;32.30;;;16.77;;
6537;SDS011;3302;52.508;13.454;2022-12-18T00:23:05;34.57;;;17.87;;
6537;SDS011;3302;52.508;13.454;2022-12-18T00:25:32;36.77;;;17.97;;
6537;SDS011;3302;52.508;13.454;2022-12-18T00:28:00;36.13;;;18.83;;
6537;SDS011;3302;52.508;13.454;2022-12-18T00:30:26;44.53;;;21.10;;
6537;SDS011;3302;52.508;13.454;2022-12-18T00:32:52;38.50;;;19.10;;
6537;SDS011;3302;52.508;13.454;2022-12-18T00:35:17;52.00;;;24.60;;
6537;SDS011;3302;52.508;13.454;2022-12-18T00:37:43;43.87;;;23.23;;
6537;SDS011;3302;52.508;13.454;2022-12-18T00:40:09;49.43;;;24.23;;
6537;SDS011;3302;52.508;13.454;2022-12-18T00:42:35;45.63;;;22.03;;
6537;SDS011;3302;52.508;13.454;2022-12-18T00:45:20;42.47;;;20.73;;
6537;SDS011;3302;52.508;13.454;2022-12-18T00:47:46;41.23;;;20.63;;
6537;SDS011;3302;52.508;13.454;2022-12-18T00:50:12;44.67;;;22.33;;
6537;SDS011;3302;52.508;13.454;2022-12-18T00:52:39;42.00;;;19.97;;
6537;SDS011;3302;52.508;13.454;2022-12-18T00:55:05;39.17;;;18.57;;
6537;SDS011;3302;52.508;13.454;2022-12-18T00:57:31;37.73;;;19.17;;
6537;SDS011;3302;52.508;13.454;2022-12-18T00:59:56;32.70;;;16.93;;
6537;SDS011;3302;52.508;13.454;2022-12-18T01:02:22;34.00;;;15.97;;
6537;SDS011;3302;52.508;13.454;2022-12-18T01:04:48;34.37;;;16.90;;
6537;SDS011;3302;52.508;13.454;2022-12-18T01:07:14;34.10;;;16.47;;
6537;SDS011;3302;52.508;13.454;2022-12-18T01:09:40;33.00;;;16.43;;
6537;SDS011;3302;52.508;13.454;2022-12-18T01:12:05;32.77;;;17.80;;
6537;SDS011;3302;52.508;13.454;2022-12-18T01:14:31;35.53;;;17.57;;
6537;SDS011;3302;52.508;13.454;2022-12-18T01:16:57;32.20;;;16.73;;
6537;SDS011;3302;52.508;13.454;2022-12-18T01:19:23;29.63;;;15.53;;
6537;SDS011;3302;52.508;13.454;2022-12-18T01:21:49;31.83;;;15.47;;
6537;SDS011;3302;52.508;13.454;2022-12-18T01:24:15;30.20;;;14.27;;
6537;SDS011;3302;52.508;13.454;2022-12-18T01:26:40;32.67;;;15.73;;
6537;SDS011;3302;52.508;13.454;2022-12-18T01:29:06;36.50;;;18.93;;
6537;SDS011;3302;52.508;13.454;2022-12-18T01:31:33;38.40;;;19.33;;
6537;SDS011;3302;52.508;13.454;2022-12-18T01:34:03;41.70;;;20.30;;
6537;SDS011;3302;52.508;13.454;2022-12-18T01:36:30;34.40;;;17.20;;
6537;SDS011;3302;52.508;13.454;2022-12-18T01:39:01;34.53;;;17.77;;
6537;SDS011;3302;52.508;13.454;2022-12-18T01:41:33;37.77;;;18.53;;
6537;SDS011;3302;52.508;13.454;2022-12-18T01:47:23;37.60;;;17.53;;
6537;SDS011;3302;52.508;13.454;2022-12-18T01:50:06;44.07;;;20.33;;
6537;SDS011;3302;52.508;13.454;2022-12-18T01:52:41;48.77;;;22.37;;
6537;SDS011;3302;52.508;13.454;2022-12-18T01:55:10;51.87;;;24.67;;
6537;SDS011;3302;52.508;13.454;2022-12-18T01:57:37;49.00;;;21.90;;
6537;SDS011;3302;52.508;13.454;2022-12-18T02:00:07;40.77;;;20.30;;
6537;SDS011;3302;52.508;13.454;2022-12-18T02:02:35;45.07;;;21.37;;
6537;SDS011;3302;52.508;13.454;2022-12-18T02:05:02;57.40;;;24.23;;
6537;SDS011;3302;52.508;13.454;2022-12-18T02:07:32;50.37;;;23.23;;
6537;SDS011;3302;52.508;13.454;2022-12-18T02:10:00;54.40;;;25.37;;
6537;SDS011;3302;52.508;13.454;2022-12-18T02:15:44;59.03;;;26.87;;
6537;SDS011;3302;52.508;13.454;2022-12-18T02:18:35;61.63;;;28.03;;
6537;SDS011;3302;52.508;13.454;2022-12-18T02:21:13;61.20;;;29.03;;
6537;SDS011;3302;52.508;13.454;2022-12-18T02:23:57;62.03;;;27.77;;
6537;SDS011;3302;52.508;13.454;2022-12-18T02:29:02;55.47;;;24.47;;
6537;SDS011;3302;52.508;13.454;2022-12-18T02:31:49;58.80;;;25.47;;
6537;SDS011;3302;52.508;13.454;2022-12-18T02:34:18;57.80;;;25.00;;
6537;SDS011;3302;52.508;13.454;2022-12-18T02:36:47;65.47;;;28.93;;
6537;SDS011;3302;52.508;13.454;2022-12-18T02:39:14;60.23;;;27.33;;
6537;SDS011;3302;52.508;13.454;2022-12-18T02:41:42;59.50;;;26.40;;
6537;SDS011;3302;52.508;13.454;2022-12-18T02:44:09;58.50;;;25.53;;
6537;SDS011;3302;52.508;13.454;2022-12-18T02:46:40;53.13;;;22.40;;
6537;SDS011;3302;52.508;13.454;2022-12-18T02:49:12;59.53;;;24.80;;
6537;SDS011;3302;52.508;13.454;2022-12-18T02:54:57;56.03;;;25.10;;
6537;SDS011;3302;52.508;13.454;2022-12-18T03:00:19;65.13;;;28.60;;
6537;SDS011;3302;52.508;13.454;2022-12-18T03:02:51;71.37;;;30.43;;
6537;SDS011;3302;52.508;13.454;2022-12-18T03:05:27;64.23;;;28.37;;
6537;SDS011;3302;52.508;13.454;2022-12-18T03:07:57;67.63;;;27.13;;
6537;SDS011;3302;52.508;13.454;2022-12-18T03:10:29;51.30;;;23.93;;
6537;SDS011;3302;52.508;13.454;2022-12-18T03:13:10;44.50;;;22.63;;
6537;SDS011;3302;52.508;13.454;2022-12-18T03:15:44;46.90;;;20.80;;
6537;SDS011;3302;52.508;13.454;2022-12-18T03:18:14;48.53;;;24.07;;
6537;SDS011;3302;52.508;13.454;2022-12-18T03:20:45;45.70;;;21.57;;
6537;SDS011;3302;52.508;13.454;2022-12-18T03:23:16;45.90;;;21.93;;
6537;SDS011;3302;52.508;13.454;2022-12-18T03:25:46;55.50;;;26.53;;
6537;SDS011;3302;52.508;13.454;2022-12-18T03:28:18;51.63;;;23.83;;
6537;SDS011;3302;52.508;13.454;2022-12-18T03:30:50;40.63;;;20.17;;
6537;SDS011;3302;52.508;13.454;2022-12-18T03:33:24;34.87;;;17.43;;
6537;SDS011;3302;52.508;13.454;2022-12-18T03:35:54;36.30;;;16.53;;
6537;SDS011;3302;52.508;13.454;2022-12-18T03:38:21;38.67;;;16.73;;
6537;SDS011;3302;52.508;13.454;2022-12-18T03:40:51;38.83;;;17.93;;
6537;SDS011;3302;52.508;13.454;2022-12-18T03:43:29;38.63;;;17.83;;
6537;SDS011;3302;52.508;13.454;2022-12-18T03:46:05;40.40;;;17.60;;
6537;SDS011;3302;52.508;13.454;2022-12-18T03:48:41;35.90;;;18.33;;
6537;SDS011;3302;52.508;13.454;2022-12-18T03:51:17;39.10;;;17.73;;
6537;SDS011;3302;52.508;13.454;2022-12-18T03:54:01;40.57;;;18.80;;
6537;SDS011;3302;52.508;13.454;2022-12-18T03:56:30;46.73;;;22.87;;
6537;SDS011;3302;52.508;13.454;2022-12-18T03:59:00;40.93;;;18.30;;
6537;SDS011;3302;52.508;13.454;2022-12-18T04:01:34;38.47;;;18.47;;
6537;SDS011;3302;52.508;13.454;2022-12-18T04:04:03;37.53;;;18.30;;
6537;SDS011;3302;52.508;13.454;2022-12-18T04:06:31;37.50;;;18.63;;
6537;SDS011;3302;52.508;13.454;2022-12-18T04:08:57;41.30;;;19.93;;
6537;SDS011;3302;52.508;13.454;2022-12-18T04:11:24;45.57;;;21.37;;
6537;SDS011;3302;52.508;13.454;2022-12-18T04:13:50;43.17;;;20.50;;
6537;SDS011;3302;52.508;13.454;2022-12-18T04:16:22;44.60;;;21.20;;
6537;SDS011;3302;52.508;13.454;2022-12-18T04:18:48;45.00;;;21.37;;
6537;SDS011;3302;52.508;13.454;2022-12-18T04:21:13;46.30;;;21.57;;
6537;SDS011;3302;52.508;13.454;2022-12-18T04:23:39;37.03;;;17.07;;
6537;SDS011;3302;52.508;13.454;2022-12-18T04:26:05;36.20;;;16.83;;
6537;SDS011;3302;52.508;13.454;2022-12-18T04:28:37;34.17;;;16.17;;
6537;SDS011;3302;52.508;13.454;2022-12-18T04:31:22;36.73;;;15.80;;
6537;SDS011;3302;52.508;13.454;2022-12-18T04:33:48;45.50;;;23.03;;
6537;SDS011;3302;52.508;13.454;2022-12-18T04:36:13;41.33;;;19.77;;
6537;SDS011;3302;52.508;13.454;2022-12-18T04:38:39;41.57;;;19.97;;
6537;SDS011;3302;52.508;13.454;2022-12-18T04:41:05;51.90;;;23.43;;
6537;SDS011;3302;52.508;13.454;2022-12-18T04:43:31;34.20;;;16.87;;
6537;SDS011;3302;52.508;13.454;2022-12-18T04:46:02;33.10;;;16.37;;
6537;SDS011;3302;52.508;13.454;2022-12-18T04:48:29;36.77;;;19.47;;
6537;SDS011;3302;52.508;13.454;2022-12-18T04:50:54;47.77;;;22.93;;
6537;SDS011;3302;52.508;13.454;2022-12-18T04:53:20;43.53;;;20.70;;
6537;SDS011;3302;52.508;13.454;2022-12-18T04:55:46;52.73;;;25.57;;
6537;SDS011;3302;52.508;13.454;2022-12-18T04:58:12;50.20;;;22.17;;
6537;SDS011;3302;52.508;13.454;2022-12-18T05:00:37;53.97;;;23.77;;
6537;SDS011;3302;52.508;13.454;2022-12-18T05:03:03;41.50;;;20.33;;
6537;SDS011;3302;52.508;13.454;2022-12-18T05:05:29;44.60;;;21.33;;
6537;SDS011;3302;52.508;13.454;2022-12-18T05:07:55;42.20;;;19.03;;
6537;SDS011;3302;52.508;13.454;2022-12-18T05:10:21;50.73;;;22.87;;
6537;SDS011;3302;52.508;13.454;2022-12-18T05:12:46;45.83;;;21.17;;
6537;SDS011;3302;52.508;13.454;2022-12-18T05:15:26;44.50;;;19.40;;
6537;SDS011;3302;52.508;13.454;2022-12-18T05:17:53;48.77;;;22.10;;
6537;SDS011;3302;52.508;13.454;2022-12-18T05:20:19;40.00;;;18.33;;
6537;SDS011;3302;52.508;13.454;2022-12-18T05:22:45;45.83;;;21.03;;
6537;SDS011;3302;52.508;13.454;2022-12-18T05:25:11;46.30;;;19.80;;
6537;SDS011;3302;52.508;13.454;2022-12-18T05:27:36;43.13;;;19.77;;
6537;SDS011;3302;52.508;13.454;2022-12-18T05:30:02;38.80;;;19.17;;
6537;SDS011;3302;52.508;13.454;2022-12-18T05:32:28;48.73;;;21.10;;
6537;SDS011;3302;52.508;13.454;2022-12-18T05:34:54;58.37;;;24.23;;
6537;SDS011;3302;52.508;13.454;2022-12-18T05:37:22;52.00;;;22.57;;
6537;SDS011;3302;52.508;13.454;2022-12-18T05:39:48;48.73;;;22.90;;
6537;SDS011;3302;52.508;13.454;2022-12-18T05:42:13;51.23;;;21.87;;
6537;SDS011;3302;52.508;13.454;2022-12-18T05:44:39;52.87;;;22.70;;
6537;SDS011;3302;52.508;13.454;2022-12-18T05:47:05;57.30;;;25.10;;
6537;SDS011;3302;52.508;13.454;2022-12-18T05:49:31;46.87;;;21.50;;
6537;SDS011;3302;52.508;13.454;2022-12-18T05:51:57;47.47;;;19.57;;
6537;SDS011;3302;52.508;13.454;2022-12-18T05:54:22;46.33;;;20.27;;
6537;SDS011;3302;52.508;13.454;2022-12-18T05:56:48;45.77;;;20.63;;
6537;SDS011;3302;52.508;13.454;2022-12-18T05:59:14;57.20;;;24.40;;
6537;SDS011;3302;52.508;13.454;2022-12-18T06:01:40;61.47;;;25.10;;
6537;SDS011;3302;52.508;13.454;2022-12-18T06:04:06;53.87;;;23.53;;
6537;SDS011;3302;52.508;13.454;2022-12-18T06:06:31;55.73;;;24.60;;
6537;SDS011;3302;52.508;13.454;2022-12-18T06:08:57;65.70;;;25.63;;
6537;SDS011;3302;52.508;13.454;2022-12-18T06:11:24;60.83;;;25.40;;
6537;SDS011;3302;52.508;13.454;2022-12-18T06:13:51;56.80;;;24.33;;
6537;SDS011;3302;52.508;13.454;2022-12-18T06:16:18;55.13;;;22.43;;
6537;SDS011;3302;52.508;13.454;2022-12-18T06:18:44;59.10;;;25.13;;
6537;SDS011;3302;52.508;13.454;2022-12-18T06:21:10;67.40;;;25.67;;
6537;SDS011;3302;52.508;13.454;2022-12-18T06:23:36;53.13;;;24.23;;
6537;SDS011;3302;52.508;13.454;2022-12-18T06:26:05;55.13;;;22.90;;
6537;SDS011;3302;52.508;13.454;2022-12-18T06:28:32;51.57;;;23.33;;
6537;SDS011;3302;52.508;13.454;2022-12-18T06:30:58;56.53;;;25.13;;
6537;SDS011;3302;52.508;13.454;2022-12-18T06:33:27;51.83;;;21.10;;
6537;SDS011;3302;52.508;13.454;2022-12-18T06:35:53;51.37;;;22.13;;
6537;SDS011;3302;52.508;13.454;2022-12-18T06:38:20;48.33;;;22.13;;
6537;SDS011;3302;52.508;13.454;2022-12-18T06:40:45;46.63;;;20.90;;
6537;SDS011;3302;52.508;13.454;2022-12-18T06:43:11;44.83;;;20.87;;
6537;SDS011;3302;52.508;13.454;2022-12-18T06:45:37;47.37;;;20.67;;
6537;SDS011;3302;52.508;13.454;2022-12-18T06:48:03;39.77;;;19.67;;
6537;SDS011;3302;52.508;13.454;2022-12-18T06:50:28;41.53;;;19.27;;
6537;SDS011;3302;52.508;13.454;2022-12-18T06:52:54;39.00;;;19.03;;
6537;SDS011;3302;52.508;13.454;2022-12-18T06:55:20;42.93;;;20.07;;
6537;SDS011;3302;52.508;13.454;2022-12-18T06:57:46;42.33;;;18.60;;
6537;SDS011;3302;52.508;13.454;2022-12-18T07:00:12;45.93;;;20.10;;
6537;SDS011;3302;52.508;13.454;2022-12-18T07:02:38;43.03;;;19.27;;
6537;SDS011;3302;52.508;13.454;2022-12-18T07:05:05;39.63;;;17.63;;
6537;SDS011;3302;52.508;13.454;2022-12-18T07:07:32;43.60;;;19.73;;
6537;SDS011;3302;52.508;13.454;2022-12-18T07:09:59;43.70;;;18.97;;
6537;SDS011;3302;52.508;13.454;2022-12-18T07:12:26;42.97;;;18.87;;
6537;SDS011;3302;52.508;13.454;2022-12-18T07:14:52;41.63;;;17.90;;
6537;SDS011;3302;52.508;13.454;2022-12-18T07:17:18;42.10;;;19.90;;
6537;SDS011;3302;52.508;13.454;2022-12-18T07:19:43;42.67;;;19.93;;
6537;SDS011;3302;52.508;13.454;2022-12-18T07:22:09;44.57;;;20.27;;
6537;SDS011;3302;52.508;13.454;2022-12-18T07:24:35;40.90;;;17.27;;
6537;SDS011;3302;52.508;13.454;2022-12-18T07:27:01;42.03;;;18.13;;
6537;SDS011;3302;52.508;13.454;2022-12-18T07:29:27;40.83;;;18.20;;
6537;SDS011;3302;52.508;13.454;2022-12-18T07:31:53;44.90;;;19.80;;
6537;SDS011;3302;52.508;13.454;2022-12-18T07:34:19;46.37;;;18.13;;
6537;SDS011;3302;52.508;13.454;2022-12-18T07:36:45;42.00;;;18.93;;
6537;SDS011;3302;52.508;13.454;2022-12-18T07:39:11;41.03;;;19.57;;
6537;SDS011;3302;52.508;13.454;2022-12-18T07:41:38;43.53;;;20.33;;
6537;SDS011;3302;52.508;13.454;2022-12-18T07:44:09;43.77;;;19.33;;
6537;SDS011;3302;52.508;13.454;2022-12-18T07:46:36;44.57;;;19.17;;
6537;SDS011;3302;52.508;13.454;2022-12-18T07:49:01;42.67;;;18.97;;
6537;SDS011;3302;52.508;13.454;2022-12-18T07:51:27;41.83;;;19.07;;
6537;SDS011;3302;52.508;13.454;2022-12-18T07:53:53;45.50;;;19.80;;
6537;SDS011;3302;52.508;13.454;2022-12-18T07:56:19;39.43;;;17.73;;
6537;SDS011;3302;52.508;13.454;2022-12-18T07:58:45;37.67;;;18.27;;
6537;SDS011;3302;52.508;13.454;2022-12-18T08:01:11;41.83;;;19.97;;
6537;SDS011;3302;52.508;13.454;2022-12-18T08:03:38;41.43;;;20.33;;
6537;SDS011;3302;52.508;13.454;2022-12-18T08:06:06;39.80;;;18.57;;
6537;SDS011;3302;52.508;13.454;2022-12-18T08:08:33;40.40;;;18.27;;
6537;SDS011;3302;52.508;13.454;2022-12-18T08:10:59;35.90;;;16.73;;
6537;SDS011;3302;52.508;13.454;2022-12-18T08:13:26;37.67;;;17.97;;
6537;SDS011;3302;52.508;13.454;2022-12-18T08:15:56;38.73;;;18.97;;
6537;SDS011;3302;52.508;13.454;2022-12-18T08:18:22;35.17;;;17.33;;
6537;SDS011;3302;52.508;13.454;2022-12-18T08:20:48;40.10;;;19.03;;
6537;SDS011;3302;52.508;13.454;2022-12-18T08:23:14;36.97;;;17.23;;
6537;SDS011;3302;52.508;13.454;2022-12-18T08:25:39;38.00;;;18.77;;
6537;SDS011;3302;52.508;13.454;2022-12-18T08:28:05;35.27;;;16.97;;
6537;SDS011;3302;52.508;13.454;2022-12-18T08:30:31;35.87;;;16.87;;
6537;SDS011;3302;52.508;13.454;2022-12-18T08:32:57;34.93;;;17.83;;
6537;SDS011;3302;52.508;13.454;2022-12-18T08:35:23;33.70;;;16.33;;
6537;SDS011;3302;52.508;13.454;2022-12-18T08:37:49;35.93;;;18.20;;
6537;SDS011;3302;52.508;13.454;2022-12-18T08:40:15;32.90;;;16.93;;
6537;SDS011;3302;52.508;13.454;2022-12-18T08:42:41;35.80;;;17.97;;
6537;SDS011;3302;52.508;13.454;2022-12-18T08:45:25;36.23;;;17.13;;
6537;SDS011;3302;52.508;13.454;2022-12-18T08:47:51;35.07;;;16.70;;
6537;SDS011;3302;52.508;13.454;2022-12-18T08:50:17;29.70;;;15.07;;
6537;SDS011;3302;52.508;13.454;2022-12-18T08:52:43;34.90;;;15.97;;
6537;SDS011;3302;52.508;13.454;2022-12-18T08:55:09;32.70;;;16.60;;
6537;SDS011;3302;52.508;13.454;2022-12-18T08:57:35;37.80;;;18.40;;
6537;SDS011;3302;52.508;13.454;2022-12-18T09:00:01;33.60;;;17.20;;
6537;SDS011;3302;52.508;13.454;2022-12-18T09:02:27;32.30;;;16.87;;
6537;SDS011;3302;52.508;13.454;2022-12-18T09:04:53;34.27;;;17.13;;
6537;SDS011;3302;52.508;13.454;2022-12-18T09:07:19;31.67;;;16.23;;
6537;SDS011;3302;52.508;13.454;2022-12-18T09:09:45;31.37;;;15.93;;
6537;SDS011;3302;52.508;13.454;2022-12-18T09:12:10;32.63;;;15.93;;
6537;SDS011;3302;52.508;13.454;2022-12-18T09:14:36;33.83;;;17.13;;
6537;SDS011;3302;52.508;13.454;2022-12-18T09:17:03;32.87;;;16.13;;
6537;SDS011;3302;52.508;13.454;2022-12-18T09:19:29;34.43;;;16.03;;
6537;SDS011;3302;52.508;13.454;2022-12-18T09:21:55;35.03;;;16.70;;
6537;SDS011;3302;52.508;13.454;2022-12-18T09:24:23;33.93;;;17.60;;
6537;SDS011;3302;52.508;13.454;2022-12-18T09:26:52;38.10;;;17.60;;
6537;SDS011;3302;52.508;13.454;2022-12-18T09:29:19;36.20;;;17.17;;
6537;SDS011;3302;52.508;13.454;2022-12-18T09:31:45;34.90;;;17.30;;
6537;SDS011;3302;52.508;13.454;2022-12-18T09:34:11;36.03;;;18.10;;
6537;SDS011;3302;52.508;13.454;2022-12-18T09:36:37;32.63;;;16.27;;
6537;SDS011;3302;52.508;13.454;2022-12-18T09:39:03;37.87;;;18.20;;
6537;SDS011;3302;52.508;13.454;2022-12-18T09:46:42;38.50;;;17.70;;
6537;SDS011;3302;52.508;13.454;2022-12-18T09:49:13;35.87;;;15.63;;
6537;SDS011;3302;52.508;13.454;2022-12-18T09:51:44;36.60;;;17.17;;
6537;SDS011;3302;52.508;13.454;2022-12-18T09:54:48;34.10;;;16.33;;
6537;SDS011;3302;52.508;13.454;2022-12-18T09:57:20;37.43;;;18.97;;
6537;SDS011;3302;52.508;13.454;2022-12-18T09:59:53;35.67;;;17.50;;
6537;SDS011;3302;52.508;13.454;2022-12-18T10:02:22;44.47;;;19.97;;
6537;SDS011;3302;52.508;13.454;2022-12-18T10:04:56;36.80;;;18.23;;
6537;SDS011;3302;52.508;13.454;2022-12-18T10:10:31;36.23;;;17.83;;
6537;SDS011;3302;52.508;13.454;2022-12-18T10:24:33;35.30;;;17.63;;
6537;SDS011;3302;52.508;13.454;2022-12-18T10:27:14;34.00;;;17.43;;
6537;SDS011;3302;52.508;13.454;2022-12-18T10:29:42;35.40;;;17.57;;
6537;SDS011;3302;52.508;13.454;2022-12-18T10:32:13;36.73;;;18.23;;
6537;SDS011;3302;52.508;13.454;2022-12-18T10:34:47;35.03;;;17.30;;
6537;SDS011;3302;52.508;13.454;2022-12-18T10:37:19;35.63;;;16.60;;
6537;SDS011;3302;52.508;13.454;2022-12-18T10:39:47;36.60;;;17.03;;
6537;SDS011;3302;52.508;13.454;2022-12-18T10:42:38;42.10;;;20.63;;
6537;SDS011;3302;52.508;13.454;2022-12-18T10:45:13;39.20;;;18.03;;
6537;SDS011;3302;52.508;13.454;2022-12-18T10:47:50;41.63;;;19.63;;
6537;SDS011;3302;52.508;13.454;2022-12-18T10:50:34;40.90;;;18.37;;
6537;SDS011;3302;52.508;13.454;2022-12-18T10:53:03;37.63;;;17.93;;
6537;SDS011;3302;52.508;13.454;2022-12-18T10:55:39;41.40;;;18.70;;
6537;SDS011;3302;52.508;13.454;2022-12-18T10:58:33;40.43;;;19.73;;
6537;SDS011;3302;52.508;13.454;2022-12-18T11:01:14;45.07;;;19.33;;
6537;SDS011;3302;52.508;13.454;2022-12-18T11:06:14;37.03;;;17.67;;
6537;SDS011;3302;52.508;13.454;2022-12-18T11:08:43;34.97;;;15.13;;
6537;SDS011;3302;52.508;13.454;2022-12-18T11:11:22;41.07;;;19.10;;
6537;SDS011;3302;52.508;13.454;2022-12-18T11:16:25;35.43;;;18.10;;
6537;SDS011;3302;52.508;13.454;2022-12-18T11:18:52;31.50;;;15.77;;
6537;SDS011;3302;52.508;13.454;2022-12-18T11:21:18;32.23;;;15.73;;
6537;SDS011;3302;52.508;13.454;2022-12-18T11:23:50;30.73;;;15.00;;
6537;SDS011;3302;52.508;13.454;2022-12-18T11:26:18;33.80;;;17.47;;
6537;SDS011;3302;52.508;13.454;2022-12-18T11:29:08;39.43;;;17.97;;
6537;SDS011;3302;52.508;13.454;2022-12-18T11:31:34;33.53;;;17.73;;
6537;SDS011;3302;52.508;13.454;2022-12-18T11:34:22;33.73;;;16.90;;
6537;SDS011;3302;52.508;13.454;2022-12-18T11:36:52;33.00;;;16.10;;
6537;SDS011;3302;52.508;13.454;2022-12-18T11:47:39;34.40;;;16.93;;
6537;SDS011;3302;52.508;13.454;2022-12-18T11:50:14;33.57;;;17.47;;
6537;SDS011;3302;52.508;13.454;2022-12-18T11:52:47;33.93;;;17.33;;
6537;SDS011;3302;52.508;13.454;2022-12-18T11:55:14;35.03;;;17.90;;
6537;SDS011;3302;52.508;13.454;2022-12-18T12:00:21;32.40;;;15.03;;
6537;SDS011;3302;52.508;13.454;2022-12-18T12:05:41;35.73;;;17.60;;
6537;SDS011;3302;52.508;13.454;2022-12-18T12:08:15;31.93;;;16.83;;
6537;SDS011;3302;52.508;13.454;2022-12-18T12:11:25;34.43;;;17.40;;
6537;SDS011;3302;52.508;13.454;2022-12-18T12:16:54;30.50;;;17.30;;
6537;SDS011;3302;52.508;13.454;2022-12-18T12:27:45;30.23;;;15.80;;
6537;SDS011;3302;52.508;13.454;2022-12-18T12:36:41;30.43;;;17.27;;
6537;SDS011;3302;52.508;13.454;2022-12-18T12:39:21;27.50;;;15.30;;
6537;SDS011;3302;52.508;13.454;2022-12-18T12:41:53;27.90;;;16.40;;
6537;SDS011;3302;52.508;13.454;2022-12-18T12:44:40;32.63;;;17.87;;
6537;SDS011;3302;52.508;13.454;2022-12-18T12:47:31;29.93;;;16.30;;
6537;SDS011;3302;52.508;13.454;2022-12-18T12:50:02;33.73;;;16.13;;
6537;SDS011;3302;52.508;13.454;2022-12-18T12:52:32;34.67;;;16.43;;
6537;SDS011;3302;52.508;13.454;2022-12-18T12:55:04;35.33;;;17.63;;
6537;SDS011;3302;52.508;13.454;2022-12-18T12:57:34;33.50;;;18.00;;
6537;SDS011;3302;52.508;13.454;2022-12-18T13:00:07;33.30;;;18.03;;
6537;SDS011;3302;52.508;13.454;2022-12-18T13:08:06;27.50;;;15.00;;
6537;SDS011;3302;52.508;13.454;2022-12-18T13:10:35;25.60;;;15.23;;
6537;SDS011;3302;52.508;13.454;2022-12-18T13:13:06;27.27;;;14.93;;
6537;SDS011;3302;52.508;13.454;2022-12-18T13:23:50;28.73;;;16.77;;
6537;SDS011;3302;52.508;13.454;2022-12-18T13:31:11;27.43;;;15.23;;
6537;SDS011;3302;52.508;13.454;2022-12-18T13:33:39;25.63;;;15.43;;
6537;SDS011;3302;52.508;13.454;2022-12-18T13:39:40;30.60;;;18.00;;
6537;SDS011;3302;52.508;13.454;2022-12-18T13:41:44;25.60;;;15.10;;
6537;SDS011;3302;52.508;13.454;2022-12-18T13:47:00;25.77;;;15.20;;
6537;SDS011;3302;52.508;13.454;2022-12-18T13:49:41;26.17;;;15.47;;
6537;SDS011;3302;52.508;13.454;2022-12-18T13:52:16;25.30;;;15.73;;
6537;SDS011;3302;52.508;13.454;2022-12-18T13:54:45;26.70;;;15.90;;
6537;SDS011;3302;52.508;13.454;2022-12-18T13:57:26;27.90;;;16.07;;
6537;SDS011;3302;52.508;13.454;2022-12-18T13:59:53;28.77;;;17.50;;
6537;SDS011;3302;52.508;13.454;2022-12-18T14:02:21;30.43;;;17.13;;
6537;SDS011;3302;52.508;13.454;2022-12-18T14:05:21;32.70;;;17.80;;
6537;SDS011;3302;52.508;13.454;2022-12-18T14:07:52;30.77;;;17.77;;
6537;SDS011;3302;52.508;13.454;2022-12-18T14:10:18;26.83;;;16.23;;
6537;SDS011;3302;52.508;13.454;2022-12-18T14:12:45;30.03;;;16.97;;
6537;SDS011;3302;52.508;13.454;2022-12-18T14:17:58;33.90;;;20.57;;
6537;SDS011;3302;52.508;13.454;2022-12-18T14:20:34;33.57;;;17.73;;
6537;SDS011;3302;52.508;13.454;2022-12-18T14:23:00;30.50;;;17.07;;
6537;SDS011;3302;52.508;13.454;2022-12-18T14:25:27;30.17;;;16.70;;
6537;SDS011;3302;52.508;13.454;2022-12-18T14:28:09;28.80;;;15.83;;
6537;SDS011;3302;52.508;13.454;2022-12-18T14:30:40;26.17;;;16.07;;
6537;SDS011;3302;52.508;13.454;2022-12-18T14:33:11;29.57;;;18.23;;
6537;SDS011;3302;52.508;13.454;2022-12-18T14:35:51;28.00;;;16.83;;
6537;SDS011;3302;52.508;13.454;2022-12-18T14:38:21;27.30;;;15.10;;
6537;SDS011;3302;52.508;13.454;2022-12-18T14:43:28;24.27;;;15.57;;
6537;SDS011;3302;52.508;13.454;2022-12-18T14:45:57;21.60;;;13.10;;
6537;SDS011;3302;52.508;13.454;2022-12-18T14:48:39;22.83;;;13.87;;
6537;SDS011;3302;52.508;13.454;2022-12-18T14:51:24;24.93;;;14.73;;
6537;SDS011;3302;52.508;13.454;2022-12-18T14:54:01;22.57;;;14.10;;
6537;SDS011;3302;52.508;13.454;2022-12-18T14:56:36;21.83;;;12.07;;
6537;SDS011;3302;52.508;13.454;2022-12-18T14:59:15;22.97;;;15.00;;
6537;SDS011;3302;52.508;13.454;2022-12-18T15:04:23;24.23;;;14.87;;
6537;SDS011;3302;52.508;13.454;2022-12-18T15:06:50;23.27;;;15.47;;
6537;SDS011;3302;52.508;13.454;2022-12-18T15:15:01;22.30;;;13.10;;
6537;SDS011;3302;52.508;13.454;2022-12-18T15:17:28;25.20;;;15.87;;
6537;SDS011;3302;52.508;13.454;2022-12-18T15:20:01;24.67;;;15.77;;
6537;SDS011;3302;52.508;13.454;2022-12-18T15:22:34;23.87;;;14.43;;
6537;SDS011;3302;52.508;13.454;2022-12-18T15:25:02;25.43;;;16.57;;
6537;SDS011;3302;52.508;13.454;2022-12-18T15:27:45;30.57;;;17.13;;
6537;SDS011;3302;52.508;13.454;2022-12-18T15:30:16;30.13;;;17.67;;
6537;SDS011;3302;52.508;13.454;2022-12-18T15:32:44;26.57;;;16.37;;
6537;SDS011;3302;52.508;13.454;2022-12-18T15:35:13;24.20;;;15.07;;
6537;SDS011;3302;52.508;13.454;2022-12-18T15:37:47;25.97;;;15.63;;
6537;SDS011;3302;52.508;13.454;2022-12-18T15:40:15;26.30;;;16.07;;
6537;SDS011;3302;52.508;13.454;2022-12-18T15:42:45;23.13;;;14.73;;
6537;SDS011;3302;52.508;13.454;2022-12-18T15:45:31;23.23;;;14.50;;
6537;SDS011;3302;52.508;13.454;2022-12-18T15:47:57;20.27;;;12.90;;
6537;SDS011;3302;52.508;13.454;2022-12-18T15:50:23;20.63;;;12.30;;
6537;SDS011;3302;52.508;13.454;2022-12-18T15:52:49;23.23;;;14.43;;
6537;SDS011;3302;52.508;13.454;2022-12-18T15:55:21;21.87;;;13.07;;
6537;SDS011;3302;52.508;13.454;2022-12-18T15:58:08;21.87;;;13.80;;
6537;SDS011;3302;52.508;13.454;2022-12-18T16:00:36;25.33;;;13.63;;
6537;SDS011;3302;52.508;13.454;2022-12-18T16:03:04;20.57;;;13.57;;
6537;SDS011;3302;52.508;13.454;2022-12-18T16:05:30;18.13;;;11.47;;
6537;SDS011;3302;52.508;13.454;2022-12-18T16:07:56;23.80;;;15.03;;
6537;SDS011;3302;52.508;13.454;2022-12-18T16:10:23;22.83;;;14.40;;
6537;SDS011;3302;52.508;13.454;2022-12-18T16:12:52;21.87;;;14.07;;
6537;SDS011;3302;52.508;13.454;2022-12-18T16:15:18;22.47;;;14.67;;
6537;SDS011;3302;52.508;13.454;2022-12-18T16:17:45;21.83;;;13.67;;
6537;SDS011;3302;52.508;13.454;2022-12-18T16:20:15;24.10;;;14.23;;
6537;SDS011;3302;52.508;13.454;2022-12-18T16:22:49;22.27;;;14.33;;
6537;SDS011;3302;52.508;13.454;2022-12-18T16:25:25;22.97;;;15.00;;
6537;SDS011;3302;52.508;13.454;2022-12-18T16:27:53;23.70;;;14.43;;
6537;SDS011;3302;52.508;13.454;2022-12-18T16:30:23;24.27;;;14.43;;
6537;SDS011;3302;52.508;13.454;2022-12-18T16:32:56;24.70;;;16.43;;
6537;SDS011;3302;52.508;13.454;2022-12-18T16:35:23;24.87;;;15.30;;
6537;SDS011;3302;52.508;13.454;2022-12-18T16:37:49;24.43;;;15.73;;